Time;durP1;ratioP1;P1;durP2;ratioP2;P2;SDS_P1;SDS_P2;PMS_P1;PMS_P2;Temp;Humidity;BMP_temperature;BMP_pressure;BME280_temperature;BME280_humidity;BME280_pressure;Samples;Min_cycle;Max_cycle;Signal;HPM_P1;HPM_P2
2022/02/23 00:00:03;;;;;;;;;;;12.50;70.80;;;;;;4980367;28;19910;-64
2022/02/23 00:02:28;;;;;;;;;;;12.50;70.80;;;;;;4980324;28;19909;-64
2022/02/23 00:04:54;;;;;;;;;;;12.50;70.90;;;;;;4980235;28;19914;-64
2022/02/23 00:07:19;;;;;;;;;;;12.50;70.90;;;;;;4980243;28;19917;-64
2022/02/23 00:09:45;;;;;;;;;;;12.50;70.90;;;;;;4980224;28;19914;-64
2022/02/23 00:12:11;;;;;;;;;;;12.50;70.90;;;;;;4980162;28;20119;-64
2022/02/23 00:14:36;;;;;;;;;;;12.50;70.80;;;;;;4980188;28;19910;-64
2022/02/23 00:17:02;;;;;;;;;;;12.50;70.80;;;;;;4980072;28;19910;-64
2022/02/23 00:19:27;;;;;;;;;;;12.50;71.00;;;;;;4980087;28;19902;-64
2022/02/23 00:21:53;;;;;;;;;;;12.50;70.90;;;;;;4980003;28;20071;-64
2022/02/23 00:24:19;;;;;;;;;;;12.40;70.90;;;;;;4979879;28;19906;-63
2022/02/23 00:26:44;;;;;;;;;;;12.40;70.90;;;;;;4980051;28;19910;-64
2022/02/23 00:29:10;;;;;;;;;;;12.40;70.80;;;;;;4979866;28;19910;-64
2022/02/23 00:31:36;;;;;;;;;;;12.40;70.90;;;;;;4979933;28;19916;-64
2022/02/23 00:34:01;;;;;;;;;;;12.40;70.90;;;;;;4979851;28;19910;-64
2022/02/23 00:36:27;;;;;;;;;;;12.50;71.00;;;;;;4979853;28;19917;-64
2022/02/23 00:38:53;;;;;;;;;;;12.40;70.80;;;;;;4979803;28;19903;-64
2022/02/23 00:41:19;;;;;;;;;;;12.40;70.90;;;;;;4979761;28;19910;-64
2022/02/23 00:43:45;;;;;;;;;;;12.40;70.90;;;;;;4978332;28;20216;-64
2022/02/23 00:46:11;;;;;;;;;;;12.50;70.90;;;;;;4979656;28;19910;-65
2022/02/23 00:48:36;;;;;;;;;;;12.40;70.90;;;;;;4979591;28;19960;-64
2022/02/23 00:51:02;;;;;;;;;;;12.50;71.00;;;;;;4979535;28;20198;-64
2022/02/23 00:53:27;;;;;;;;;;;12.40;70.90;;;;;;4979552;28;19902;-64
2022/02/23 00:55:53;;;;;;;;;;;12.40;70.90;;;;;;4978376;28;19906;-64
2022/02/23 00:58:18;;;;;;;;;;;12.50;71.00;;;;;;4979357;28;19902;-64
2022/02/23 01:00:44;;;;;;;;;;;12.40;70.90;;;;;;4979510;28;20490;-64
2022/02/23 01:03:09;;;;;;;;;;;12.40;70.90;;;;;;4979379;28;19918;-64
2022/02/23 01:05:35;;;;;;;;;;;12.40;70.90;;;;;;4979280;28;19906;-64
2022/02/23 01:08:01;;;;;;;;;;;12.40;70.90;;;;;;4979582;28;19917;-64
2022/02/23 01:10:27;;;;;;;;;;;12.40;70.90;;;;;;4979248;28;20210;-64
2022/02/23 01:12:52;;;;;;;;;;;12.40;70.90;;;;;;4979302;28;19943;-64
2022/02/23 01:15:18;;;;;;;;;;;12.40;71.00;;;;;;4979228;28;19942;-64
2022/02/23 01:17:44;;;;;;;;;;;12.40;71.00;;;;;;4979259;28;19910;-64
2022/02/23 01:20:10;;;;;;;;;;;12.40;70.90;;;;;;4979109;28;19910;-64
2022/02/23 01:22:36;;;;;;;;;;;12.40;71.00;;;;;;4979171;28;19944;-64
2022/02/23 01:25:02;;;;;;;;;;;12.40;71.00;;;;;;4978993;28;19914;-63
2022/02/23 01:27:28;;;;;;;;;;;12.40;71.00;;;;;;4978937;28;20121;-64
2022/02/23 01:29:55;;;;;;;;;;;12.40;70.90;;;;;;4978985;28;19984;-63
2022/02/23 01:32:21;;;;;;;;;;;12.40;70.90;;;;;;4978940;28;19910;-64
2022/02/23 01:34:46;;;;;;;;;;;12.40;71.00;;;;;;4978937;28;20019;-64
2022/02/23 01:37:13;;;;;;;;;;;12.40;71.00;;;;;;4978889;28;19910;-64
2022/02/23 01:39:39;;;;;;;;;;;12.40;71.00;;;;;;4978779;28;19909;-65
2022/02/23 01:42:04;;;;;;;;;;;12.30;71.00;;;;;;4978648;28;19930;-64
2022/02/23 01:44:30;;;;;;;;;;;12.40;71.00;;;;;;4978612;28;19914;-64
2022/02/23 01:46:56;;;;;;;;;;;12.40;70.90;;;;;;4978803;28;19910;-64
2022/02/23 01:49:22;;;;;;;;;;;12.40;70.90;;;;;;4978665;28;19910;-64
2022/02/23 01:51:48;;;;;;;;;;;12.40;70.90;;;;;;4978670;28;19908;-64
2022/02/23 01:54:13;;;;;;;;;;;12.40;71.00;;;;;;4978716;28;19902;-64
2022/02/23 01:56:40;;;;;;;;;;;12.40;71.00;;;;;;4978861;28;19910;-64
2022/02/23 01:59:05;;;;;;;;;;;12.40;71.00;;;;;;4978593;28;19941;-64
2022/02/23 02:01:31;;;;;;;;;;;12.30;70.90;;;;;;4978474;28;19925;-63
2022/02/23 02:03:57;;;;;;;;;;;12.30;70.90;;;;;;4978436;28;19910;-64
2022/02/23 02:06:22;;;;;;;;;;;12.40;70.90;;;;;;4978027;28;19902;-65
2022/02/23 02:08:48;;;;;;;;;;;12.30;71.00;;;;;;4978414;28;19910;-63
2022/02/23 02:11:13;;;;;;;;;;;12.40;71.00;;;;;;4978464;28;19909;-64
2022/02/23 02:13:39;;;;;;;;;;;12.40;71.00;;;;;;4978319;28;20258;-64
2022/02/23 02:16:05;;;;;;;;;;;12.30;70.90;;;;;;4978316;28;19959;-63
2022/02/23 02:18:30;;;;;;;;;;;12.40;70.90;;;;;;4978304;28;19910;-64
2022/02/23 02:20:56;;;;;;;;;;;12.30;70.90;;;;;;4977098;28;19910;-64
2022/02/23 02:23:22;;;;;;;;;;;12.30;70.90;;;;;;4977868;28;19917;-64
2022/02/23 02:25:47;;;;;;;;;;;12.30;70.90;;;;;;4978183;28;19913;-64
2022/02/23 02:28:13;;;;;;;;;;;12.30;71.00;;;;;;4978169;28;20213;-64
2022/02/23 02:30:38;;;;;;;;;;;12.30;71.00;;;;;;4978040;28;19902;-64
2022/02/23 02:33:04;;;;;;;;;;;12.30;71.00;;;;;;4978100;28;19910;-63
2022/02/23 02:35:36;;;;;;;;;;;12.30;71.00;;;;;;4978026;28;20210;-63
2022/02/23 02:38:04;;;;;;;;;;;12.30;71.00;;;;;;4978085;28;19949;-64
2022/02/23 02:40:30;;;;;;;;;;;12.30;71.00;;;;;;4977985;28;19951;-63
2022/02/23 02:42:56;;;;;;;;;;;12.30;71.00;;;;;;4977816;28;19925;-63
2022/02/23 02:45:23;;;;;;;;;;;12.30;71.00;;;;;;4977928;28;19914;-64
2022/02/23 02:47:48;;;;;;;;;;;12.30;71.00;;;;;;4977919;28;19940;-64
2022/02/23 02:50:14;;;;;;;;;;;12.30;71.00;;;;;;4977948;28;19972;-64
2022/02/23 02:52:40;;;;;;;;;;;12.30;71.10;;;;;;4977859;28;20226;-64
2022/02/23 02:55:06;;;;;;;;;;;12.30;71.00;;;;;;4977918;28;20368;-64
2022/02/23 02:57:31;;;;;;;;;;;12.30;71.10;;;;;;4977799;28;19942;-64
2022/02/23 02:59:57;;;;;;;;;;;12.30;71.10;;;;;;4977827;28;19989;-64
2022/02/23 03:02:22;;;;;;;;;;;12.30;71.10;;;;;;4977754;28;19924;-64
2022/02/23 03:04:48;;;;;;;;;;;12.30;71.10;;;;;;4977674;28;19912;-64
2022/02/23 03:07:15;;;;;;;;;;;12.30;71.10;;;;;;4977788;28;20240;-65
2022/02/23 03:09:40;;;;;;;;;;;12.30;71.10;;;;;;4977658;28;19917;-64
2022/02/23 03:12:06;;;;;;;;;;;12.30;71.10;;;;;;4977612;28;19910;-64
2022/02/23 03:14:31;;;;;;;;;;;12.30;71.10;;;;;;4977682;28;19977;-65
2022/02/23 03:16:57;;;;;;;;;;;12.30;71.00;;;;;;4977650;28;20133;-65
2022/02/23 03:19:23;;;;;;;;;;;12.30;71.00;;;;;;4980089;28;19925;-65
2022/02/23 03:21:48;;;;;;;;;;;12.30;71.00;;;;;;4980926;28;19902;-64
2022/02/23 03:24:14;;;;;;;;;;;12.30;71.00;;;;;;4980889;28;20113;-64
2022/02/23 03:26:39;;;;;;;;;;;12.30;71.10;;;;;;4979617;28;19914;-65
2022/02/23 03:29:05;;;;;;;;;;;12.30;71.10;;;;;;4980875;28;19932;-64
2022/02/23 03:31:30;;;;;;;;;;;12.30;71.10;;;;;;4980773;28;19919;-64
2022/02/23 03:33:56;;;;;;;;;;;12.30;71.10;;;;;;4980707;28;19941;-65
2022/02/23 03:36:22;;;;;;;;;;;12.20;71.10;;;;;;4980712;28;19914;-64
2022/02/23 03:38:47;;;;;;;;;;;12.30;71.10;;;;;;4980683;28;19909;-64
2022/02/23 03:41:13;;;;;;;;;;;12.20;71.10;;;;;;4980556;28;19925;-65
2022/02/23 03:43:39;;;;;;;;;;;12.20;71.10;;;;;;4980392;28;19953;-64
2022/02/23 03:46:05;;;;;;;;;;;12.30;71.20;;;;;;4980569;28;20134;-64
2022/02/23 03:48:31;;;;;;;;;;;12.20;71.10;;;;;;4980496;28;19975;-64
2022/02/23 03:50:57;;;;;;;;;;;12.30;71.10;;;;;;4980461;28;19997;-65
2022/02/23 03:53:22;;;;;;;;;;;12.20;71.00;;;;;;4980439;28;19961;-64
2022/02/23 03:55:48;;;;;;;;;;;12.20;71.10;;;;;;4980323;28;19902;-64
2022/02/23 03:58:13;;;;;;;;;;;12.20;71.10;;;;;;4980442;28;19902;-64
2022/02/23 04:00:39;;;;;;;;;;;12.30;71.20;;;;;;4980615;28;20194;-65
2022/02/23 04:03:05;;;;;;;;;;;12.20;71.10;;;;;;4980361;28;19933;-64
2022/02/23 04:05:31;;;;;;;;;;;12.30;71.20;;;;;;4980201;28;19963;-65
2022/02/23 04:07:56;;;;;;;;;;;12.30;71.20;;;;;;4980188;28;19917;-64
2022/02/23 04:10:23;;;;;;;;;;;12.20;71.20;;;;;;4980154;28;20210;-65
2022/02/23 04:12:49;;;;;;;;;;;12.20;71.10;;;;;;4980149;28;19902;-65
2022/02/23 04:15:15;;;;;;;;;;;12.20;71.10;;;;;;4980163;28;19910;-65
2022/02/23 04:17:41;;;;;;;;;;;12.20;71.80;;;;;;4980013;28;20005;-64
2022/02/23 04:20:07;;;;;;;;;;;12.20;71.20;;;;;;4980079;28;19917;-65
2022/02/23 04:22:33;;;;;;;;;;;12.20;71.20;;;;;;4980023;28;19902;-64
2022/02/23 04:24:59;;;;;;;;;;;12.20;71.20;;;;;;4979831;28;19913;-65
2022/02/23 04:27:24;;;;;;;;;;;12.20;71.20;;;;;;4980174;28;20133;-64
2022/02/23 04:29:50;;;;;;;;;;;12.20;71.20;;;;;;4978472;28;20102;-64
2022/02/23 04:32:16;;;;;;;;;;;12.20;71.10;;;;;;4979946;28;19975;-64
2022/02/23 04:34:41;;;;;;;;;;;12.20;71.20;;;;;;4979862;28;19910;-65
2022/02/23 04:37:07;;;;;;;;;;;12.20;71.20;;;;;;4979787;28;19917;-64
2022/02/23 04:39:32;;;;;;;;;;;12.20;71.30;;;;;;4979800;28;19909;-64
2022/02/23 04:41:58;;;;;;;;;;;12.20;71.20;;;;;;4979177;28;19925;-65
2022/02/23 04:44:24;;;;;;;;;;;12.20;71.30;;;;;;4979732;28;19936;-65
2022/02/23 04:46:49;;;;;;;;;;;12.20;71.30;;;;;;4979594;28;19910;-64
2022/02/23 04:49:15;;;;;;;;;;;12.20;71.20;;;;;;4979674;28;20153;-65
2022/02/23 04:51:40;;;;;;;;;;;12.20;71.20;;;;;;4979604;28;19970;-64
2022/02/23 04:54:06;;;;;;;;;;;12.20;71.30;;;;;;4979520;28;20277;-64
2022/02/23 04:56:32;;;;;;;;;;;12.20;71.20;;;;;;4979524;28;19963;-65
2022/02/23 04:58:57;;;;;;;;;;;12.20;71.20;;;;;;4979406;28;19902;-64
2022/02/23 05:01:23;;;;;;;;;;;12.20;71.20;;;;;;4979411;28;19902;-65
2022/02/23 05:03:49;;;;;;;;;;;12.20;71.20;;;;;;4979321;28;19902;-64
2022/02/23 05:06:14;;;;;;;;;;;12.20;71.20;;;;;;4979475;28;19917;-65
2022/02/23 05:08:40;;;;;;;;;;;12.20;71.30;;;;;;4979294;28;19910;-66
2022/02/23 05:11:05;;;;;;;;;;;12.20;71.30;;;;;;4979363;28;20420;-64
2022/02/23 05:13:31;;;;;;;;;;;12.20;71.20;;;;;;4979265;28;20000;-64
2022/02/23 05:15:58;;;;;;;;;;;12.20;71.20;;;;;;4979236;28;19910;-65
2022/02/23 05:18:26;;;;;;;;;;;12.20;71.30;;;;;;4979280;28;19909;-63
2022/02/23 05:20:52;;;;;;;;;;;12.20;71.30;;;;;;4979175;28;19917;-65
2022/02/23 05:23:18;;;;;;;;;;;12.20;71.30;;;;;;4979063;28;19981;-64
2022/02/23 05:25:43;;;;;;;;;;;12.20;71.30;;;;;;4979052;28;19910;-65
2022/02/23 05:28:09;;;;;;;;;;;12.20;71.30;;;;;;4979573;28;19942;-64
2022/02/23 05:30:35;;;;;;;;;;;12.20;71.30;;;;;;4979069;28;19937;-64
2022/02/23 05:33:00;;;;;;;;;;;12.20;71.30;;;;;;4979007;28;19910;-64
2022/02/23 05:35:26;;;;;;;;;;;12.20;71.30;;;;;;4978927;28;19910;-65
2022/02/23 05:37:51;;;;;;;;;;;12.10;71.30;;;;;;4978955;28;19981;-64
2022/02/23 05:40:17;;;;;;;;;;;12.20;71.30;;;;;;4978619;28;19943;-64
2022/02/23 05:42:43;;;;;;;;;;;12.10;71.30;;;;;;4978413;28;19914;-64
2022/02/23 05:45:11;;;;;;;;;;;12.10;71.30;;;;;;4978737;28;19906;-64
2022/02/23 05:47:37;;;;;;;;;;;12.10;71.30;;;;;;4978746;28;20206;-65
2022/02/23 05:50:03;;;;;;;;;;;12.10;71.30;;;;;;4978781;28;20012;-65
2022/02/23 05:52:28;;;;;;;;;;;12.20;71.40;;;;;;4978717;28;19977;-65
2022/02/23 05:54:54;;;;;;;;;;;12.20;71.40;;;;;;4978778;28;20278;-64
2022/02/23 05:57:20;;;;;;;;;;;12.10;71.30;;;;;;4978594;28;19980;-64
2022/02/23 05:59:45;;;;;;;;;;;12.10;72.00;;;;;;4978672;28;20454;-64
2022/02/23 06:02:11;;;;;;;;;;;12.10;71.30;;;;;;4978613;28;19996;-64
2022/02/23 06:04:37;;;;;;;;;;;12.20;71.30;;;;;;4978502;28;19914;-65
2022/02/23 06:07:03;;;;;;;;;;;12.10;71.30;;;;;;4978550;28;19944;-64
2022/02/23 06:09:29;;;;;;;;;;;12.10;71.40;;;;;;4978454;28;20097;-65
2022/02/23 06:11:54;;;;;;;;;;;12.10;71.30;;;;;;4978580;28;19910;-64
2022/02/23 06:14:20;;;;;;;;;;;12.20;71.40;;;;;;4978319;28;19910;-64
2022/02/23 06:16:46;;;;;;;;;;;12.10;71.40;;;;;;4978413;28;20262;-65
2022/02/23 06:19:11;;;;;;;;;;;12.20;71.50;;;;;;4978442;28;19917;-65
2022/02/23 06:21:37;;;;;;;;;;;12.20;71.40;;;;;;4978434;28;19976;-65
2022/02/23 06:24:02;;;;;;;;;;;12.10;71.40;;;;;;4978291;28;19941;-64
2022/02/23 06:26:28;;;;;;;;;;;12.10;71.30;;;;;;4978321;28;19902;-65
2022/02/23 06:28:54;;;;;;;;;;;12.10;71.30;;;;;;4978483;28;19910;-64
2022/02/23 06:31:19;;;;;;;;;;;12.20;71.40;;;;;;4978241;28;19910;-64
2022/02/23 06:33:46;;;;;;;;;;;12.10;71.40;;;;;;4978237;28;19948;-64
2022/02/23 06:36:13;;;;;;;;;;;12.10;71.40;;;;;;4978254;28;19910;-65
2022/02/23 06:38:40;;;;;;;;;;;12.10;71.30;;;;;;4976993;28;19965;-64
2022/02/23 06:41:26;;;;;;;;;;;12.20;71.40;;;;;;4978171;28;19910;-64
2022/02/23 06:43:52;;;;;;;;;;;12.10;71.40;;;;;;4977912;28;19922;-64
2022/02/23 06:46:18;;;;;;;;;;;12.10;71.40;;;;;;4976935;28;20129;-64
2022/02/23 06:48:44;;;;;;;;;;;12.10;71.40;;;;;;4978159;28;19987;-64
2022/02/23 06:51:15;;;;;;;;;;;12.10;71.30;;;;;;4978057;28;19914;-64
2022/02/23 06:53:41;;;;;;;;;;;12.10;71.30;;;;;;4979628;28;19910;-64
2022/02/23 06:56:06;;;;;;;;;;;12.10;71.30;;;;;;4981404;28;19910;-65
2022/02/23 06:58:32;;;;;;;;;;;12.10;71.30;;;;;;4981432;28;19977;-64
2022/02/23 07:00:57;;;;;;;;;;;12.10;71.30;;;;;;4981468;28;19929;-64
2022/02/23 07:03:23;;;;;;;;;;;12.10;71.30;;;;;;4981350;28;19902;-64
2022/02/23 07:05:48;;;;;;;;;;;12.10;71.30;;;;;;4981188;28;20202;-64
2022/02/23 07:08:14;;;;;;;;;;;12.10;71.20;;;;;;4981374;28;19948;-63
2022/02/23 07:10:40;;;;;;;;;;;12.20;71.30;;;;;;4981228;28;19973;-64
2022/02/23 07:13:06;;;;;;;;;;;12.20;71.30;;;;;;4981294;28;19963;-64
2022/02/23 07:15:32;;;;;;;;;;;12.10;71.30;;;;;;4981187;28;20155;-64
2022/02/23 07:17:58;;;;;;;;;;;12.20;71.30;;;;;;4981147;28;20214;-64
2022/02/23 07:20:24;;;;;;;;;;;12.10;71.20;;;;;;4981170;28;19909;-64
2022/02/23 07:22:50;;;;;;;;;;;12.10;71.20;;;;;;4980972;28;19917;-64
2022/02/23 07:25:16;;;;;;;;;;;12.10;71.30;;;;;;4980928;28;19921;-65
2022/02/23 07:27:41;;;;;;;;;;;12.20;71.30;;;;;;4980938;28;19910;-64
2022/02/23 07:30:08;;;;;;;;;;;12.20;71.30;;;;;;4981026;28;19902;-64
2022/02/23 07:32:34;;;;;;;;;;;12.20;71.40;;;;;;4980989;28;20217;-64
2022/02/23 07:35:00;;;;;;;;;;;12.10;71.30;;;;;;4980910;28;19910;-64
2022/02/23 07:37:26;;;;;;;;;;;12.20;71.30;;;;;;4980916;28;20222;-64
2022/02/23 07:39:53;;;;;;;;;;;12.10;71.20;;;;;;4980874;28;19910;-65
2022/02/23 07:42:19;;;;;;;;;;;12.10;71.20;;;;;;4980546;28;19917;-64
2022/02/23 07:44:45;;;;;;;;;;;12.10;71.30;;;;;;4980783;28;20215;-64
2022/02/23 07:47:11;;;;;;;;;;;12.10;71.30;;;;;;4980719;28;19917;-64
2022/02/23 07:49:37;;;;;;;;;;;12.10;71.30;;;;;;4980727;28;19910;-65
2022/02/23 07:52:03;;;;;;;;;;;12.10;71.30;;;;;;4980620;28;19901;-64
2022/02/23 07:54:28;;;;;;;;;;;12.10;71.30;;;;;;4980564;28;19909;-64
2022/02/23 07:56:54;;;;;;;;;;;12.10;71.30;;;;;;4980616;28;20118;-64
2022/02/23 07:59:20;;;;;;;;;;;12.10;71.30;;;;;;4980487;28;20185;-64
2022/02/23 08:01:45;;;;;;;;;;;12.10;71.30;;;;;;4980569;28;19910;-64
2022/02/23 08:04:11;;;;;;;;;;;12.10;71.30;;;;;;4979857;28;19917;-64
2022/02/23 08:06:39;;;;;;;;;;;12.10;71.30;;;;;;4980456;28;19956;-64
2022/02/23 08:09:07;;;;;;;;;;;12.10;71.30;;;;;;4979298;28;20114;-64
2022/02/23 08:11:36;;;;;;;;;;;12.10;71.30;;;;;;4980374;28;19955;-65
2022/02/23 08:14:03;;;;;;;;;;;12.10;71.30;;;;;;4980370;28;19955;-64
2022/02/23 08:19:36;;;;;;;;;;;12.10;71.30;;;;;;4980540;28;20210;-63
2022/02/23 08:22:03;;;;;;;;;;;12.10;71.30;;;;;;4980166;28;19910;-63
2022/02/23 08:24:29;;;;;;;;;;;12.10;71.30;;;;;;4979986;28;19940;-63
2022/02/23 08:26:56;;;;;;;;;;;12.10;71.40;;;;;;4980140;28;20220;-64
2022/02/23 08:29:22;;;;;;;;;;;12.10;71.30;;;;;;4980004;28;19985;-64
2022/02/23 08:31:48;;;;;;;;;;;12.10;71.40;;;;;;4979998;28;19952;-64
2022/02/23 08:34:13;;;;;;;;;;;12.10;72.00;;;;;;4980072;28;19902;-63
2022/02/23 08:36:39;;;;;;;;;;;12.10;71.30;;;;;;4979919;28;19910;-63
2022/02/23 08:39:07;;;;;;;;;;;12.10;71.30;;;;;;4980014;28;19968;-63
2022/02/23 08:41:32;;;;;;;;;;;12.10;71.30;;;;;;4979811;28;19981;-64
2022/02/23 08:43:58;;;;;;;;;;;12.10;71.20;;;;;;4979480;28;19921;-64
2022/02/23 08:46:24;;;;;;;;;;;12.20;71.30;;;;;;4979867;28;19906;-64
2022/02/23 08:48:49;;;;;;;;;;;12.10;71.20;;;;;;4979794;28;19916;-65
2022/02/23 08:51:15;;;;;;;;;;;12.10;71.10;;;;;;4979793;28;19917;-65
2022/02/23 08:53:40;;;;;;;;;;;12.20;71.20;;;;;;4979740;28;20217;-64
2022/02/23 08:56:06;;;;;;;;;;;12.20;71.10;;;;;;4979694;28;19910;-64
2022/02/23 08:58:32;;;;;;;;;;;12.40;70.50;;;;;;4979565;28;19932;-64
2022/02/23 09:00:57;;;;;;;;;;;12.40;70.40;;;;;;4979621;28;20072;-65
2022/02/23 09:03:23;;;;;;;;;;;12.50;70.30;;;;;;4979542;28;19937;-64
2022/02/23 09:05:48;;;;;;;;;;;12.40;70.20;;;;;;4979418;28;19906;-64
2022/02/23 09:08:14;;;;;;;;;;;12.40;70.30;;;;;;4979535;28;20206;-64
2022/02/23 09:10:40;;;;;;;;;;;12.50;70.30;;;;;;4979376;28;20159;-64
2022/02/23 09:13:07;;;;;;;;;;;12.50;70.00;;;;;;4979399;28;19917;-64
2022/02/23 09:15:34;;;;;;;;;;;12.50;70.00;;;;;;4978439;28;19902;-64
2022/02/23 09:18:03;;;;;;;;;;;12.50;70.00;;;;;;4979221;28;19942;-64
2022/02/23 09:20:29;;;;;;;;;;;12.60;69.90;;;;;;4979275;28;20106;-64
2022/02/23 09:22:54;;;;;;;;;;;12.80;69.40;;;;;;4979240;28;19945;-63
2022/02/23 09:25:21;;;;;;;;;;;12.70;69.40;;;;;;4979036;28;19914;-63
2022/02/23 09:27:47;;;;;;;;;;;12.60;69.70;;;;;;4979228;28;19913;-64
2022/02/23 09:30:14;;;;;;;;;;;12.60;69.70;;;;;;4979119;28;19955;-64
2022/02/23 09:32:41;;;;;;;;;;;12.60;69.90;;;;;;4979115;28;19910;-64
2022/02/23 09:35:07;;;;;;;;;;;12.60;70.00;;;;;;4977840;28;19914;-63
2022/02/23 09:37:34;;;;;;;;;;;12.60;69.90;;;;;;4978948;28;19902;-64
2022/02/23 09:39:59;;;;;;;;;;;12.60;69.90;;;;;;4978895;28;19914;-65
2022/02/23 09:42:29;;;;;;;;;;;12.70;70.40;;;;;;4978879;28;19910;-64
2022/02/23 09:44:59;;;;;;;;;;;12.70;69.80;;;;;;4978926;28;19926;-64
2022/02/23 09:47:25;;;;;;;;;;;12.60;69.90;;;;;;4978857;28;19948;-64
2022/02/23 09:49:52;;;;;;;;;;;12.60;70.00;;;;;;4978799;28;20426;-65
2022/02/23 09:52:23;;;;;;;;;;;12.50;70.10;;;;;;4977495;28;19973;-64
2022/02/23 09:54:49;;;;;;;;;;;12.50;70.20;;;;;;4978698;28;19951;-65
2022/02/23 09:57:15;;;;;;;;;;;12.50;70.30;;;;;;4978738;28;19910;-64
2022/02/23 09:59:41;;;;;;;;;;;12.50;70.20;;;;;;4977479;28;20146;-64
2022/02/23 10:02:09;;;;;;;;;;;12.50;70.30;;;;;;4978577;28;19952;-64
2022/02/23 10:04:35;;;;;;;;;;;12.50;70.30;;;;;;4978600;28;19913;-64
2022/02/23 10:07:02;;;;;;;;;;;12.60;70.30;;;;;;4978406;28;19910;-64
2022/02/23 10:09:28;;;;;;;;;;;12.60;70.10;;;;;;4978450;28;20027;-64
2022/02/23 10:11:54;;;;;;;;;;;12.70;70.00;;;;;;4978524;28;19902;-64
2022/02/23 10:14:19;;;;;;;;;;;12.70;70.00;;;;;;4978363;28;19973;-64
2022/02/23 10:16:47;;;;;;;;;;;12.70;70.00;;;;;;4978503;28;19910;-64
2022/02/23 10:19:14;;;;;;;;;;;12.70;70.00;;;;;;4978356;28;19902;-63
2022/02/23 10:21:47;;;;;;;;;;;12.70;70.00;;;;;;4978295;28;19916;-64
2022/02/23 10:24:23;;;;;;;;;;;12.70;70.00;;;;;;4978260;28;19902;-64
2022/02/23 10:26:52;;;;;;;;;;;12.70;70.00;;;;;;4977974;28;19902;-64
2022/02/23 10:29:24;;;;;;;;;;;12.70;70.00;;;;;;4978256;28;20191;-64
2022/02/23 10:31:50;;;;;;;;;;;12.60;70.10;;;;;;4978158;28;19917;-64
2022/02/23 10:34:19;;;;;;;;;;;12.60;70.20;;;;;;4978313;28;19937;-65
2022/02/23 10:36:56;;;;;;;;;;;12.60;70.20;;;;;;4978181;28;19981;-64
2022/02/23 10:39:22;;;;;;;;;;;12.60;70.20;;;;;;4978177;28;19981;-64
2022/02/23 10:41:47;;;;;;;;;;;12.60;70.30;;;;;;4976841;28;19964;-64
2022/02/23 10:44:24;;;;;;;;;;;12.60;70.20;;;;;;4977805;28;19914;-64
2022/02/23 10:46:50;;;;;;;;;;;12.60;70.20;;;;;;4978019;28;19906;-64
2022/02/23 10:49:16;;;;;;;;;;;12.60;70.20;;;;;;4976725;28;20141;-64
2022/02/23 10:51:45;;;;;;;;;;;12.70;70.10;;;;;;4977981;28;19948;-64
2022/02/23 10:54:13;;;;;;;;;;;12.70;70.20;;;;;;4977939;28;19972;-64
2022/02/23 10:56:40;;;;;;;;;;;12.80;70.00;;;;;;4977923;28;19902;-64
2022/02/23 10:59:07;;;;;;;;;;;12.80;70.00;;;;;;4977938;28;20572;-64
2022/02/23 11:01:33;;;;;;;;;;;12.90;69.80;;;;;;4976525;28;19951;-65
2022/02/23 11:03:59;;;;;;;;;;;12.90;69.80;;;;;;4977671;28;19955;-64
2022/02/23 11:06:25;;;;;;;;;;;12.90;69.80;;;;;;4977862;28;19932;-64
2022/02/23 11:08:55;;;;;;;;;;;13.00;69.70;;;;;;4977734;28;19917;-65
2022/02/23 11:11:21;;;;;;;;;;;13.00;69.70;;;;;;4977703;28;19910;-64
2022/02/23 11:13:48;;;;;;;;;;;13.10;69.50;;;;;;4977732;28;19910;-64
2022/02/23 11:16:15;;;;;;;;;;;13.10;69.30;;;;;;4977778;28;19902;-64
2022/02/23 11:18:41;;;;;;;;;;;13.20;69.20;;;;;;4977601;28;19941;-65
2022/02/23 11:21:08;;;;;;;;;;;13.20;69.10;;;;;;4977564;28;20006;-64
2022/02/23 11:23:35;;;;;;;;;;;13.20;69.20;;;;;;4977684;28;19902;-64
2022/02/23 11:26:01;;;;;;;;;;;13.20;69.30;;;;;;4977486;28;19956;-64
2022/02/23 11:28:48;;;;;;;;;;;13.20;69.30;;;;;;4977611;28;19984;-64
2022/02/23 11:31:15;;;;;;;;;;;13.20;69.40;;;;;;4977619;28;19908;-64
2022/02/23 11:33:47;;;;;;;;;;;13.10;69.40;;;;;;4977468;28;20397;-65
2022/02/23 11:36:19;;;;;;;;;;;13.10;69.60;;;;;;4977485;28;19937;-64
2022/02/23 11:38:48;;;;;;;;;;;13.10;69.70;;;;;;4977700;28;19945;-64
2022/02/23 11:41:32;;;;;;;;;;;13.10;69.50;;;;;;4980750;28;19971;-65
2022/02/23 11:44:01;;;;;;;;;;;13.10;69.40;;;;;;4980524;28;19914;-64
2022/02/23 11:46:27;;;;;;;;;;;13.10;69.40;;;;;;4980684;28;19920;-64
2022/02/23 11:48:59;;;;;;;;;;;13.20;69.30;;;;;;4980650;28;19937;-64
2022/02/23 11:51:34;;;;;;;;;;;13.30;69.20;;;;;;4980690;28;19964;-64
2022/02/23 11:54:00;;;;;;;;;;;13.30;69.00;;;;;;4980509;28;19917;-65
2022/02/23 11:56:35;;;;;;;;;;;13.40;69.10;;;;;;4980587;28;19910;-64
2022/02/23 11:59:01;;;;;;;;;;;13.40;68.90;;;;;;4980492;28;19917;-64
2022/02/23 12:01:26;;;;;;;;;;;13.40;68.90;;;;;;4980496;28;19942;-64
2022/02/23 12:04:16;;;;;;;;;;;13.50;68.80;;;;;;4980397;28;20186;-64
2022/02/23 12:07:00;;;;;;;;;;;13.50;68.80;;;;;;4980341;28;19914;-65
2022/02/23 12:09:44;;;;;;;;;;;13.50;68.90;;;;;;4979029;28;19910;-64
2022/02/23 12:12:33;;;;;;;;;;;13.40;69.10;;;;;;4980149;28;20092;-65
2022/02/23 12:15:03;;;;;;;;;;;13.40;69.10;;;;;;4987662;28;19902;-64
2022/02/23 12:17:52;;;;;;;;;;;13.40;69.20;;;;;;4980190;28;19924;-65
2022/02/23 12:20:36;;;;;;;;;;;13.40;69.10;;;;;;4987778;28;19910;-65
2022/02/23 12:23:02;;;;;;;;;;;13.40;69.20;;;;;;4980062;28;19917;-64
2022/02/23 12:25:47;;;;;;;;;;;13.40;69.20;;;;;;4980077;28;19988;-64
2022/02/23 12:28:19;;;;;;;;;;;13.30;69.20;;;;;;4980016;28;19917;-64
2022/02/23 12:30:48;;;;;;;;;;;13.50;69.00;;;;;;4980012;28;19999;-64
2022/02/23 12:33:14;;;;;;;;;;;13.50;68.90;;;;;;4980041;28;19902;-64
2022/02/23 12:35:40;;;;;;;;;;;13.60;68.80;;;;;;4979844;28;19981;-64
2022/02/23 12:38:06;;;;;;;;;;;13.60;68.60;;;;;;4979912;28;19909;-64
2022/02/23 12:40:33;;;;;;;;;;;13.70;68.60;;;;;;4979854;28;20208;-64
2022/02/23 12:43:05;;;;;;;;;;;13.60;68.70;;;;;;4979610;28;19909;-63
2022/02/23 12:45:31;;;;;;;;;;;13.60;69.00;;;;;;4979686;28;19914;-63
2022/02/23 12:47:59;;;;;;;;;;;13.50;69.10;;;;;;4978426;28;19916;-63
2022/02/23 12:50:28;;;;;;;;;;;13.50;69.10;;;;;;4979648;28;19917;-64
2022/02/23 12:52:54;;;;;;;;;;;13.50;69.10;;;;;;4979671;28;19944;-64
2022/02/23 12:55:20;;;;;;;;;;;13.40;69.10;;;;;;4979543;28;19910;-64
2022/02/23 12:57:52;;;;;;;;;;;13.40;69.20;;;;;;4979677;28;19985;-65
2022/02/23 13:00:29;;;;;;;;;;;13.30;69.20;;;;;;4979600;28;19902;-64
2022/02/23 13:02:55;;;;;;;;;;;13.40;69.40;;;;;;4979539;28;19910;-64
2022/02/23 13:05:25;;;;;;;;;;;13.30;69.40;;;;;;4979383;28;19958;-64
2022/02/23 13:07:51;;;;;;;;;;;13.30;69.40;;;;;;4979400;28;19926;-64
2022/02/23 13:10:23;;;;;;;;;;;13.30;69.40;;;;;;4979451;28;19950;-64
2022/02/23 13:12:52;;;;;;;;;;;13.20;69.30;;;;;;4979295;28;19902;-63
2022/02/23 13:15:17;;;;;;;;;;;13.30;69.40;;;;;;4979262;28;20191;-63
2022/02/23 13:17:43;;;;;;;;;;;13.30;69.40;;;;;;4979280;28;19924;-64
2022/02/23 13:20:10;;;;;;;;;;;13.30;69.10;;;;;;4979279;28;20094;-64
2022/02/23 13:22:37;;;;;;;;;;;13.40;69.10;;;;;;4979198;28;19976;-64
2022/02/23 13:25:02;;;;;;;;;;;13.50;68.90;;;;;;4979117;28;19977;-64
2022/02/23 13:27:30;;;;;;;;;;;13.50;68.80;;;;;;4979116;28;19902;-64
2022/02/23 13:29:57;;;;;;;;;;;13.50;68.70;;;;;;4979112;28;20040;-64
2022/02/23 13:32:30;;;;;;;;;;;13.60;68.70;;;;;;4979062;28;19902;-65
2022/02/23 13:34:57;;;;;;;;;;;13.60;68.70;;;;;;4979087;28;20005;-64
2022/02/23 13:37:25;;;;;;;;;;;13.50;68.80;;;;;;4978979;28;19902;-64
2022/02/23 13:39:59;;;;;;;;;;;13.50;69.00;;;;;;4978934;28;19917;-64
2022/02/23 13:42:36;;;;;;;;;;;13.40;69.70;;;;;;4979039;28;19946;-63
2022/02/23 13:45:14;;;;;;;;;;;13.40;69.10;;;;;;4978774;28;20263;-63
2022/02/23 13:47:49;;;;;;;;;;;13.30;69.20;;;;;;4978967;28;19983;-64
2022/02/23 13:50:16;;;;;;;;;;;13.30;69.30;;;;;;4978943;28;19918;-64
2022/02/23 13:52:43;;;;;;;;;;;13.30;69.30;;;;;;4978742;28;20259;-64
2022/02/23 13:55:13;;;;;;;;;;;13.30;69.40;;;;;;4978642;28;19902;-64
2022/02/23 13:57:47;;;;;;;;;;;13.20;69.40;;;;;;4978663;28;19940;-64
2022/02/23 14:00:15;;;;;;;;;;;13.20;69.40;;;;;;4978910;28;19969;-63
2022/02/23 14:02:42;;;;;;;;;;;13.20;69.40;;;;;;4978009;28;19910;-65
2022/02/23 14:05:11;;;;;;;;;;;13.20;69.40;;;;;;4978557;28;19906;-64
2022/02/23 14:07:38;;;;;;;;;;;13.20;69.40;;;;;;4978586;28;19916;-65
2022/02/23 14:10:07;;;;;;;;;;;13.20;69.40;;;;;;4978540;28;19902;-65
2022/02/23 14:12:32;;;;;;;;;;;13.20;69.30;;;;;;4978457;28;19902;-64
2022/02/23 14:14:59;;;;;;;;;;;13.30;69.10;;;;;;4978518;28;19909;-64
2022/02/23 14:17:28;;;;;;;;;;;13.70;67.80;;;;;;4978480;28;19902;-64